Weather at Moonambel Airfield

Public forecast

Using degrees Celsius for public forecast. Weather courtesy of forecast.io.

Closest aviation weather report (METAR) to Moonambel Airfield

Closest report is Avalon Airport, 85.3 nm (158.1 km) SE.

2022/11/27 08:30 (retrieved 13 minutes ago)

YMAV 270830Z AUTO 25017KT 9999 // SCT056 15/06 Q1006 RF000/0002

Closest aviation forecast (TAF) to Moonambel Airfield

Closest forecast is Avalon Airport, 85.3 nm (158.1 km) SE.

2022/11/27 07:15 Ammendment (retrieved 1 hour ago)

AMD YMAV 270713Z 2707/2806 25014KT 9999 -SHRA SCT030 SCT050 FM271100 27008KT 9999 NSW FEW030 FM272200 27014KT 9999 BKN045